createdAt,value
2023-01-30T00:01:34.484Z,-0.37
2023-01-30T00:06:36.010Z,-0.34
2023-01-30T00:11:37.636Z,-0.31
2023-01-30T00:16:39.102Z,-0.27
2023-01-30T00:21:40.609Z,-0.28
2023-01-30T00:26:42.126Z,-0.32
2023-01-30T00:31:44.051Z,-0.38
2023-01-30T00:36:47.723Z,-0.39
2023-01-30T00:42:11.735Z,-0.39
2023-01-30T00:47:13.294Z,-0.37
2023-01-30T00:52:14.754Z,-0.39
2023-01-30T00:57:16.173Z,-0.42
2023-01-30T01:02:17.923Z,-0.43
2023-01-30T01:07:20.741Z,-0.41
2023-01-30T01:12:23.777Z,-0.36
2023-01-30T01:17:25.201Z,-0.30
2023-01-30T01:22:26.716Z,-0.36
2023-01-30T01:27:29.337Z,-0.51
2023-01-30T01:32:31.040Z,-0.60
2023-01-30T01:37:32.543Z,-0.66
2023-01-30T01:42:36.749Z,-0.64
2023-01-30T01:47:46.393Z,-0.56
2023-01-30T01:52:52.339Z,-0.45
2023-01-30T01:57:59.301Z,-0.39
2023-01-30T02:03:05.391Z,-0.37
2023-01-30T02:08:12.443Z,-0.32
2023-01-30T02:13:13.875Z,-0.32
2023-01-30T02:18:15.914Z,-0.36
2023-01-30T02:23:28.935Z,-0.38
2023-01-30T02:28:40.726Z,-0.34
2023-01-30T02:33:55.374Z,-0.22
2023-01-30T02:39:02.804Z,-0.12
2023-01-30T02:44:11.065Z,-0.02
2023-01-30T02:49:40.775Z,0.15
2023-01-30T02:54:42.200Z,0.31
2023-01-30T02:59:48.506Z,0.43
2023-01-30T03:05:22.684Z,0.55
2023-01-30T03:10:48.760Z,0.62
2023-01-30T03:16:04.793Z,0.68
2023-01-30T03:21:07.043Z,0.77
2023-01-30T03:26:12.983Z,0.86
2023-01-30T03:31:15.885Z,0.87
2023-01-30T03:36:18.010Z,0.87
2023-01-30T03:41:19.959Z,0.86
2023-01-30T03:46:21.502Z,0.84
2023-01-30T03:51:23.625Z,0.79
2023-01-30T03:56:25.262Z,0.75
2023-01-30T04:01:26.935Z,0.76
2023-01-30T04:06:28.572Z,0.86
2023-01-30T04:11:31.612Z,0.98
2023-01-30T04:16:33.473Z,1.06
2023-01-30T04:22:06.821Z,1.10
2023-01-30T04:27:09.207Z,1.04
2023-01-30T04:32:15.033Z,0.92
2023-01-30T04:37:16.776Z,0.90
2023-01-30T04:42:19.145Z,0.96
2023-01-30T04:47:38.576Z,1.06
2023-01-30T04:52:40.103Z,1.17
2023-01-30T04:57:42.677Z,1.23
2023-01-30T05:02:44.270Z,1.30
2023-01-30T05:07:45.711Z,1.43
2023-01-30T05:12:47.897Z,1.57
2023-01-30T05:17:49.360Z,1.67
2023-01-30T05:22:50.905Z,1.74
2023-01-30T05:27:52.354Z,1.77
2023-01-30T05:32:53.885Z,1.79
2023-01-30T05:37:55.462Z,1.78
2023-01-30T05:42:57.061Z,1.75
2023-01-30T05:48:01.261Z,1.70
2023-01-30T05:53:03.117Z,1.71
2023-01-30T05:58:04.549Z,1.69
2023-01-30T06:03:05.974Z,1.69
2023-01-30T06:08:08.051Z,1.68
2023-01-30T06:13:11.126Z,1.71
2023-01-30T06:18:12.679Z,1.75
2023-01-30T06:23:14.097Z,1.79
2023-01-30T06:28:17.379Z,1.88
2023-01-30T06:33:19.290Z,1.96
2023-01-30T06:38:20.775Z,1.96
2023-01-30T06:43:22.261Z,1.96
2023-01-30T06:48:23.677Z,1.98
2023-01-30T06:53:30.183Z,1.95
2023-01-30T06:58:31.648Z,1.83
2023-01-30T07:03:33.109Z,1.76
2023-01-30T07:08:34.567Z,1.77
2023-01-30T07:13:36.077Z,1.80
2023-01-30T07:18:37.584Z,1.85
2023-01-30T07:23:39.003Z,1.94
2023-01-30T07:28:40.462Z,2.05
2023-01-30T07:33:41.891Z,2.16
2023-01-30T07:38:43.319Z,2.25
2023-01-30T07:43:44.745Z,2.26
2023-01-30T07:48:46.320Z,2.29
2023-01-30T07:53:50.897Z,2.33
2023-01-30T07:58:55.163Z,2.29
2023-01-30T08:03:56.596Z,2.34
2023-01-30T08:08:58.074Z,2.29
2023-01-30T08:13:59.821Z,2.19
2023-01-30T08:19:01.303Z,2.17
2023-01-30T08:24:02.869Z,2.14
2023-01-30T08:29:04.558Z,2.17
2023-01-30T08:34:06.019Z,2.28
2023-01-30T08:39:07.941Z,2.36
2023-01-30T08:44:10.305Z,2.42
2023-01-30T08:49:12.376Z,2.48
2023-01-30T08:54:13.906Z,2.60
2023-01-30T08:59:15.404Z,2.68
2023-01-30T09:04:16.992Z,2.76
2023-01-30T09:09:18.451Z,2.77
2023-01-30T09:14:19.938Z,2.76
2023-01-30T09:19:23.410Z,2.82
2023-01-30T09:24:27.836Z,2.89
2023-01-30T09:29:29.395Z,2.94
2023-01-30T09:34:30.967Z,2.94
2023-01-30T09:39:32.434Z,2.90
2023-01-30T09:45:04.142Z,2.89
2023-01-30T09:50:26.668Z,2.97
2023-01-30T09:55:30.869Z,3.12
2023-01-30T10:00:39.251Z,3.18
2023-01-30T10:05:40.713Z,3.21
2023-01-30T10:11:14.234Z,3.35
2023-01-30T10:16:21.196Z,3.30
2023-01-30T10:21:32.683Z,3.33
2023-01-30T10:26:35.024Z,3.42
2023-01-30T10:31:55.721Z,3.45
2023-01-30T10:37:11.095Z,3.45
2023-01-30T10:42:19.717Z,3.41
2023-01-30T10:47:47.070Z,3.40
2023-01-30T10:53:05.004Z,3.39
2023-01-30T10:58:17.368Z,3.34
2023-01-30T11:03:40.566Z,3.28
2023-01-30T11:08:42.679Z,3.23
2023-01-30T11:13:44.114Z,3.22
2023-01-30T11:19:18.725Z,3.20
2023-01-30T11:24:28.358Z,3.13
2023-01-30T11:29:33.015Z,3.06
2023-01-30T11:34:34.485Z,2.98
2023-01-30T11:39:35.951Z,2.95
2023-01-30T11:44:40.809Z,3.01
2023-01-30T11:50:23.364Z,3.06
2023-01-30T11:55:18.560Z,3.10
2023-01-30T12:00:37.002Z,3.15
2023-01-30T12:05:42.513Z,3.16
2023-01-30T12:10:45.614Z,3.17
2023-01-30T12:15:52.747Z,3.27
2023-01-30T12:21:00.572Z,3.41
2023-01-30T12:26:11.626Z,3.50
2023-01-30T12:31:13.114Z,3.53
2023-01-30T12:36:14.521Z,3.56
2023-01-30T12:41:18.846Z,3.58
2023-01-30T12:46:50.563Z,3.52
2023-01-30T12:52:28.901Z,3.58
2023-01-30T12:57:47.264Z,3.58
2023-01-30T13:02:55.944Z,3.57
2023-01-30T13:08:02.379Z,3.52
2023-01-30T13:13:09.719Z,3.49
2023-01-30T13:18:34.173Z,3.57
2023-01-30T13:23:46.332Z,3.61
2023-01-30T13:28:58.948Z,3.70
2023-01-30T13:34:07.435Z,3.69
2023-01-30T13:39:23.651Z,3.67
2023-01-30T13:44:30.734Z,3.66
2023-01-30T13:50:10.918Z,3.69
2023-01-30T13:55:33.900Z,4.34
2023-01-30T14:00:36.663Z,4.45
2023-01-30T14:06:00.961Z,4.25
2023-01-30T14:11:02.733Z,4.15
2023-01-30T14:16:06.175Z,4.09
2023-01-30T14:21:20.018Z,4.04
2023-01-30T14:26:53.228Z,3.84
2023-01-30T14:31:55.048Z,3.76
2023-01-30T14:36:56.675Z,3.73
2023-01-30T14:42:20.639Z,3.72
2023-01-30T14:47:33.687Z,3.70
2023-01-30T14:52:44.853Z,3.75
2023-01-30T14:57:58.994Z,3.76
2023-01-30T15:03:04.887Z,3.73
2023-01-30T15:08:09.833Z,3.68
2023-01-30T15:13:45.861Z,3.60
2023-01-30T15:19:09.286Z,3.55
2023-01-30T15:24:26.022Z,3.50
2023-01-30T15:29:58.521Z,3.44
2023-01-30T15:35:02.955Z,3.42
2023-01-30T15:40:18.035Z,3.20
2023-01-30T15:45:31.809Z,2.87
2023-01-30T15:50:33.396Z,2.72
2023-01-30T15:55:37.331Z,2.70
2023-01-30T16:00:44.790Z,2.68
2023-01-30T16:05:48.476Z,2.72
2023-01-30T16:10:51.720Z,2.74
2023-01-30T16:16:18.555Z,2.78
2023-01-30T16:21:24.025Z,2.78
2023-01-30T16:26:25.975Z,2.76
2023-01-30T16:31:32.180Z,2.80
2023-01-30T16:36:41.052Z,2.86
2023-01-30T16:41:48.060Z,2.92
2023-01-30T16:46:55.481Z,2.96
2023-01-30T16:52:13.038Z,3.04
2023-01-30T16:57:35.797Z,3.12
2023-01-30T17:02:41.207Z,3.14
2023-01-30T17:07:42.685Z,3.09
2023-01-30T17:12:48.387Z,2.97
2023-01-30T17:17:49.909Z,2.95
2023-01-30T17:22:57.571Z,2.91
2023-01-30T17:27:59.295Z,2.90
2023-01-30T17:33:00.734Z,2.94
2023-01-30T17:38:05.676Z,2.97
2023-01-30T17:43:09.396Z,2.96
2023-01-30T17:48:12.545Z,2.90
2023-01-30T17:53:13.881Z,2.84
2023-01-30T17:58:17.206Z,2.80
2023-01-30T18:03:19.178Z,2.81
2023-01-30T18:08:20.606Z,2.87
2023-01-30T18:13:22.034Z,2.87
2023-01-30T18:18:23.545Z,2.84
2023-01-30T18:23:25.045Z,2.79
2023-01-30T18:28:26.516Z,2.70
2023-01-30T18:33:27.996Z,2.73
2023-01-30T18:38:30.462Z,2.78
2023-01-30T18:43:31.917Z,2.82
2023-01-30T18:48:33.935Z,2.88
2023-01-30T18:53:36.024Z,2.92
2023-01-30T18:58:38.178Z,2.96
2023-01-30T19:03:40.557Z,3.03
2023-01-30T19:08:42.119Z,3.06
2023-01-30T19:13:43.664Z,3.06
2023-01-30T19:18:45.090Z,3.10
2023-01-30T19:23:46.723Z,3.13
2023-01-30T19:28:48.348Z,3.17
2023-01-30T19:34:08.517Z,3.21
2023-01-30T19:39:10.436Z,3.26
2023-01-30T19:44:12.299Z,3.27
2023-01-30T19:49:13.758Z,3.30
2023-01-30T19:54:15.342Z,3.28
2023-01-30T19:59:16.982Z,3.26
2023-01-30T20:04:18.409Z,3.27
2023-01-30T20:09:20.029Z,3.32
2023-01-30T20:14:21.601Z,3.34
2023-01-30T20:19:23.150Z,3.34
2023-01-30T20:24:24.547Z,3.36
2023-01-30T20:29:26.033Z,3.37
2023-01-30T20:34:27.631Z,3.40
2023-01-30T20:39:29.396Z,3.43
2023-01-30T20:44:30.978Z,3.40
2023-01-30T20:49:32.446Z,3.35
2023-01-30T20:54:33.915Z,3.31
2023-01-30T20:59:35.684Z,3.27
2023-01-30T21:04:37.294Z,3.29
2023-01-30T21:09:38.782Z,3.32
2023-01-30T21:14:40.334Z,3.33
2023-01-30T21:19:43.505Z,3.37
2023-01-30T21:24:45.179Z,3.38
2023-01-30T21:29:46.651Z,3.43
2023-01-30T21:34:48.096Z,3.43
2023-01-30T21:40:08.296Z,3.31
2023-01-30T21:45:09.907Z,3.00
2023-01-30T21:50:11.472Z,2.83
2023-01-30T21:55:12.941Z,2.83
2023-01-30T22:00:14.649Z,2.84
2023-01-30T22:05:16.286Z,2.88
2023-01-30T22:10:17.696Z,2.93
2023-01-30T22:15:22.643Z,2.93
2023-01-30T22:20:24.113Z,2.92
2023-01-30T22:25:25.578Z,2.91
2023-01-30T22:30:27.435Z,2.93
2023-01-30T22:35:28.919Z,2.90
2023-01-30T22:40:30.359Z,2.85
2023-01-30T22:45:35.083Z,2.77
2023-01-30T22:50:37.033Z,2.68
2023-01-30T22:55:38.531Z,2.68
2023-01-30T23:00:40.328Z,2.71
2023-01-30T23:05:41.786Z,2.76
2023-01-30T23:10:43.261Z,2.84
2023-01-30T23:15:46.690Z,2.93
2023-01-30T23:20:48.097Z,3.00
2023-01-30T23:25:49.584Z,3.06
2023-01-30T23:30:51.004Z,3.06
2023-01-30T23:35:52.417Z,3.10
2023-01-30T23:40:53.862Z,3.14
2023-01-30T23:45:55.825Z,3.15
2023-01-30T23:50:57.279Z,3.11
2023-01-30T23:55:58.929Z,3.05
